Time;durP1;ratioP1;P1;durP2;ratioP2;P2;SDS_P1;SDS_P2;PMS_P1;PMS_P2;Temp;Humidity;BMP_temperature;BMP_pressure;BME280_temperature;BME280_humidity;BME280_pressure;Samples;Min_cycle;Max_cycle;Signal;HPM_P1;HPM_P2
2023/04/21 00:00:19;;;;;;;0.20;0.20;;;8.00;99.90;;;;;;5061762;28;20179;-85
2023/04/21 00:02:45;;;;;;;0.17;0.17;;;8.00;99.90;;;;;;5063642;28;20181;-85
2023/04/21 00:05:12;;;;;;;0.20;0.20;;;8.00;99.90;;;;;;5055480;28;20212;-86
2023/04/21 00:07:39;;;;;;;0.13;0.13;;;7.90;99.90;;;;;;5066329;28;20531;-85
2023/04/21 00:10:06;;;;;;;0.10;0.10;;;7.90;99.90;;;;;;5066943;28;20437;-87
2023/04/21 00:12:32;;;;;;;0.13;0.13;;;8.00;99.90;;;;;;5058215;28;20984;-84
2023/04/21 00:14:57;;;;;;;0.10;0.10;;;8.00;99.90;;;;;;5063594;28;20517;-86
2023/04/21 00:17:23;;;;;;;0.20;0.20;;;8.00;99.90;;;;;;5067344;28;20194;-86
2023/04/21 00:19:48;;;;;;;0.20;0.20;;;7.90;99.90;;;;;;5061253;28;20714;-86
2023/04/21 00:22:14;;;;;;;0.20;0.20;;;8.00;99.90;;;;;;5064801;28;20270;-85
2023/04/21 00:24:39;;;;;;;0.20;0.20;;;7.90;99.90;;;;;;5065117;28;20239;-87
2023/04/21 00:27:05;;;;;;;0.10;0.10;;;8.00;99.90;;;;;;5065745;28;20194;-86
2023/04/21 00:29:31;;;;;;;0.10;0.10;;;7.90;99.90;;;;;;5067181;28;20775;-87
2023/04/21 00:31:56;;;;;;;0.20;0.20;;;7.90;99.90;;;;;;5067410;28;20618;-86
2023/04/21 00:34:22;;;;;;;0.10;0.10;;;7.90;99.90;;;;;;5054651;28;20229;-86
2023/04/21 00:36:47;;;;;;;0.20;0.20;;;7.90;99.90;;;;;;5066855;28;20655;-86
2023/04/21 00:39:13;;;;;;;0.20;0.20;;;7.90;99.90;;;;;;5069451;28;20182;-88
2023/04/21 00:41:39;;;;;;;0.10;0.10;;;7.80;99.90;;;;;;5069133;28;20642;-86
2023/04/21 00:44:07;;;;;;;0.20;0.20;;;7.90;99.90;;;;;;5072315;28;20190;-86
2023/04/21 00:46:33;;;;;;;0.10;0.10;;;7.80;99.90;;;;;;5068587;28;20448;-85
2023/04/21 00:49:02;;;;;;;0.10;0.10;;;7.90;99.90;;;;;;5072189;28;20979;-86
2023/04/21 00:51:30;;;;;;;0.20;0.20;;;8.00;99.90;;;;;;5060220;28;20587;-86
2023/04/21 00:53:56;;;;;;;0.10;0.10;;;7.90;99.90;;;;;;5070175;28;20479;-86
2023/04/21 00:56:22;;;;;;;0.20;0.20;;;8.00;99.90;;;;;;5055241;28;20803;-86
2023/04/21 00:58:48;;;;;;;0.13;0.13;;;7.90;99.90;;;;;;5070058;28;20194;-87
2023/04/21 01:01:14;;;;;;;0.10;0.10;;;8.00;99.90;;;;;;5069703;28;20494;-87
2023/04/21 01:03:40;;;;;;;0.20;0.20;;;7.90;99.90;;;;;;5071617;28;20416;-86
2023/04/21 01:06:07;;;;;;;0.20;0.20;;;7.90;99.90;;;;;;5072341;28;20170;-86
2023/04/21 01:08:34;;;;;;;0.10;0.10;;;7.80;99.90;;;;;;5062171;28;20449;-87
2023/04/21 01:11:07;;;;;;;0.17;0.17;;;7.80;99.90;;;;;;5069132;28;20439;-86
2023/04/21 01:13:33;;;;;;;0.13;0.13;;;7.70;99.90;;;;;;5069566;28;20843;-86
2023/04/21 01:15:58;;;;;;;0.20;0.20;;;7.70;99.90;;;;;;5065421;28;20489;-86
2023/04/21 01:18:24;;;;;;;0.17;0.17;;;7.60;99.90;;;;;;5066724;28;20278;-86
2023/04/21 01:20:49;;;;;;;0.20;0.20;;;7.70;99.90;;;;;;5066451;28;20564;-87
2023/04/21 01:23:17;;;;;;;0.13;0.13;;;7.60;99.90;;;;;;5066389;28;20286;-86
2023/04/21 01:25:43;;;;;;;0.20;0.20;;;7.60;99.90;;;;;;5070503;28;20192;-86
2023/04/21 01:28:08;;;;;;;0.20;0.20;;;7.60;99.90;;;;;;5067551;28;20511;-86
2023/04/21 01:30:34;;;;;;;0.10;0.10;;;7.50;99.90;;;;;;5068145;28;20178;-87
2023/04/21 01:32:59;;;;;;;0.20;0.20;;;7.60;99.90;;;;;;5053539;28;20215;-86
2023/04/21 01:35:25;;;;;;;0.10;0.10;;;7.50;99.90;;;;;;5070030;28;20283;-86
2023/04/21 01:37:50;;;;;;;0.10;0.10;;;7.50;99.90;;;;;;5061081;28;20694;-86
2023/04/21 01:40:16;;;;;;;0.20;0.20;;;7.50;99.90;;;;;;5061055;28;20192;-86
2023/04/21 01:42:42;;;;;;;0.20;0.20;;;7.50;99.90;;;;;;5067932;28;20182;-87
2023/04/21 01:45:09;;;;;;;0.10;0.10;;;7.50;99.90;;;;;;5066160;28;20182;-86
2023/04/21 01:47:34;;;;;;;0.20;0.20;;;7.50;99.90;;;;;;5067714;28;20467;-87
2023/04/21 01:50:00;;;;;;;0.20;0.20;;;7.50;99.90;;;;;;5068449;28;20439;-86
2023/04/21 01:52:25;;;;;;;0.20;0.20;;;7.50;99.90;;;;;;5069828;28;20222;-87
2023/04/21 01:54:51;;;;;;;0.20;0.20;;;7.50;99.90;;;;;;5070217;28;20628;-86
2023/04/21 01:57:16;;;;;;;0.20;0.20;;;7.50;99.90;;;;;;5069353;28;20193;-85
2023/04/21 01:59:42;;;;;;;0.20;0.20;;;7.50;99.90;;;;;;5063520;28;20194;-86
2023/04/21 02:02:08;;;;;;;0.20;0.20;;;7.60;99.90;;;;;;5064565;28;20190;-86
2023/04/21 02:04:34;;;;;;;0.20;0.20;;;7.50;99.90;;;;;;5069814;28;20524;-85
2023/04/21 02:07:00;;;;;;;0.20;0.20;;;7.50;99.90;;;;;;5065477;28;20539;-86
2023/04/21 02:09:26;;;;;;;0.17;0.17;;;7.50;99.90;;;;;;5070535;28;20548;-85
2023/04/21 02:11:51;;;;;;;0.20;0.20;;;7.40;99.90;;;;;;5065330;28;20465;-87
2023/04/21 02:14:17;;;;;;;0.20;0.20;;;7.40;99.90;;;;;;5062104;28;20186;-87
2023/04/21 02:16:43;;;;;;;0.10;0.10;;;7.40;99.90;;;;;;5065884;28;20205;-86
2023/04/21 02:19:08;;;;;;;0.10;0.10;;;7.40;99.90;;;;;;5070779;28;20209;-87
2023/04/21 02:21:34;;;;;;;0.13;0.13;;;7.40;99.90;;;;;;5066485;28;20665;-86
2023/04/21 02:23:59;;;;;;;0.17;0.17;;;7.40;99.90;;;;;;5067395;28;20191;-85
2023/04/21 02:26:25;;;;;;;0.17;0.17;;;7.40;99.90;;;;;;5063471;28;20268;-86
2023/04/21 02:28:50;;;;;;;0.10;0.10;;;7.30;99.90;;;;;;5068017;28;20761;-85
2023/04/21 02:31:17;;;;;;;0.20;0.20;;;7.30;99.90;;;;;;5064787;28;20182;-87
2023/04/21 02:33:43;;;;;;;0.17;0.17;;;7.30;99.90;;;;;;5060336;28;20659;-86
2023/04/21 02:36:09;;;;;;;0.10;0.10;;;7.30;99.90;;;;;;5060276;28;20444;-86
2023/04/21 02:38:35;;;;;;;0.10;0.10;;;7.30;99.90;;;;;;5069372;28;20533;-86
2023/04/21 02:41:00;;;;;;;0.20;0.20;;;7.30;99.90;;;;;;5057489;28;20186;-85
2023/04/21 02:43:26;;;;;;;0.17;0.17;;;7.30;99.90;;;;;;5064740;28;20186;-86
2023/04/21 02:45:51;;;;;;;0.20;0.20;;;7.30;99.90;;;;;;5060386;28;20577;-85
2023/04/21 02:48:21;;;;;;;0.20;0.20;;;7.30;99.90;;;;;;5066576;28;20227;-85
2023/04/21 02:50:48;;;;;;;0.20;0.20;;;7.30;99.90;;;;;;5067769;28;20264;-86
2023/04/21 02:53:15;;;;;;;0.20;0.20;;;7.30;99.90;;;;;;5069258;28;20472;-85
2023/04/21 02:55:41;;;;;;;0.13;0.13;;;7.20;99.90;;;;;;5069417;28;20466;-87
2023/04/21 02:58:06;;;;;;;0.10;0.10;;;7.30;99.90;;;;;;5064340;28;20961;-87
2023/04/21 03:00:32;;;;;;;0.10;0.10;;;7.20;99.90;;;;;;5069518;28;20436;-86
2023/04/21 03:02:58;;;;;;;0.20;0.20;;;7.20;99.90;;;;;;5070412;28;20221;-86
2023/04/21 03:05:23;;;;;;;0.17;0.17;;;7.10;99.90;;;;;;5064066;28;20243;-86
2023/04/21 03:07:49;;;;;;;0.10;0.10;;;7.10;99.90;;;;;;5069573;28;20185;-86
2023/04/21 03:10:15;;;;;;;0.10;0.10;;;7.20;99.90;;;;;;5066596;28;20182;-86
2023/04/21 03:12:40;;;;;;;0.17;0.17;;;7.10;99.90;;;;;;5066595;28;20479;-87
2023/04/21 03:15:06;;;;;;;0.20;0.20;;;7.10;99.90;;;;;;5067281;28;20184;-85
2023/04/21 03:17:31;;;;;;;0.20;0.20;;;7.10;99.90;;;;;;5069445;28;20650;-87
2023/04/21 03:19:57;;;;;;;0.10;0.10;;;7.20;99.90;;;;;;5068773;28;20189;-86
2023/04/21 03:22:22;;;;;;;0.20;0.20;;;7.20;99.90;;;;;;5057054;28;20572;-87
2023/04/21 03:24:48;;;;;;;0.20;0.20;;;7.20;99.90;;;;;;5066680;28;20178;-87
2023/04/21 03:27:13;;;;;;;0.10;0.10;;;7.20;99.90;;;;;;5067525;28;20256;-87
2023/04/21 03:29:39;;;;;;;0.20;0.20;;;7.10;99.90;;;;;;5064740;28;20232;-87
2023/04/21 03:32:05;;;;;;;0.20;0.20;;;7.10;99.90;;;;;;5067304;28;20214;-86
2023/04/21 03:34:30;;;;;;;0.10;0.10;;;7.10;99.90;;;;;;5070080;28;20178;-85
2023/04/21 03:36:56;;;;;;;0.20;0.20;;;7.10;99.90;;;;;;5067087;28;20436;-85
2023/04/21 03:39:21;;;;;;;0.13;0.13;;;7.20;99.90;;;;;;5067906;28;20261;-86
2023/04/21 03:41:47;;;;;;;0.10;0.10;;;7.10;99.90;;;;;;5064406;28;20638;-87
2023/04/21 03:44:12;;;;;;;0.20;0.20;;;7.10;99.90;;;;;;5060745;28;20671;-86
2023/04/21 03:46:38;;;;;;;0.20;0.20;;;7.20;99.90;;;;;;5063065;28;20181;-88
2023/04/21 03:49:03;;;;;;;0.10;0.10;;;7.30;99.90;;;;;;5061468;28;20190;-87
2023/04/21 03:51:31;;;;;;;0.20;0.20;;;7.20;99.90;;;;;;5061757;28;20218;-86
2023/04/21 03:53:56;;;;;;;0.20;0.20;;;7.10;99.90;;;;;;5066690;28;20234;-87
2023/04/21 03:56:22;;;;;;;0.13;0.13;;;7.00;99.90;;;;;;5068189;28;20454;-88
2023/04/21 03:58:48;;;;;;;0.20;0.20;;;7.00;99.90;;;;;;5068330;28;20240;-85
2023/04/21 04:01:14;;;;;;;0.20;0.20;;;7.10;99.90;;;;;;5062389;28;20186;-87
2023/04/21 04:03:40;;;;;;;0.20;0.20;;;7.10;99.90;;;;;;5065701;28;20460;-86
2023/04/21 04:06:05;;;;;;;0.20;0.20;;;7.10;99.90;;;;;;5069046;28;20861;-87
2023/04/21 04:08:31;;;;;;;0.20;0.20;;;7.00;99.90;;;;;;5067344;28;20217;-87
2023/04/21 04:10:56;;;;;;;0.20;0.20;;;6.90;99.90;;;;;;5070951;28;20186;-86
2023/04/21 04:13:23;;;;;;;0.20;0.20;;;6.90;99.90;;;;;;5068470;28;22001;-85
2023/04/21 04:15:49;;;;;;;0.20;0.20;;;6.90;99.90;;;;;;5067435;28;20186;-86
2023/04/21 04:18:14;;;;;;;0.20;0.20;;;6.90;99.90;;;;;;5064362;28;20432;-88
2023/04/21 04:20:40;;;;;;;0.20;0.20;;;6.90;99.90;;;;;;5058688;28;20269;-87
2023/04/21 04:23:05;;;;;;;0.17;0.17;;;6.90;99.90;;;;;;5069012;28;20186;-87
2023/04/21 04:25:32;;;;;;;0.17;0.17;;;6.90;99.90;;;;;;5072715;28;20185;-87
2023/04/21 04:27:57;;;;;;;0.20;0.20;;;6.90;99.90;;;;;;5072742;28;20255;-87
2023/04/21 04:30:26;;;;;;;0.20;0.20;;;6.90;99.90;;;;;;5071134;28;20929;-87
2023/04/21 04:32:52;;;;;;;0.10;0.10;;;6.90;99.90;;;;;;5065556;28;20590;-86
2023/04/21 04:35:18;;;;;;;0.20;0.20;;;7.00;99.90;;;;;;5070897;28;20505;-86
2023/04/21 04:37:44;;;;;;;0.17;0.17;;;7.10;99.90;;;;;;5070911;28;20194;-87
2023/04/21 04:40:13;;;;;;;0.20;0.20;;;7.10;99.90;;;;;;5070339;28;20509;-87
2023/04/21 04:42:39;;;;;;;0.17;0.17;;;7.20;99.90;;;;;;5071192;28;20484;-88
2023/04/21 04:45:07;;;;;;;0.20;0.20;;;7.20;99.90;;;;;;5068488;28;20585;-87
2023/04/21 04:47:33;;;;;;;0.20;0.20;;;7.20;99.90;;;;;;5064453;28;20470;-86
2023/04/21 04:49:58;;;;;;;0.20;0.20;;;7.40;99.90;;;;;;5071003;28;20502;-86
2023/04/21 04:52:24;;;;;;;0.17;0.17;;;7.40;99.90;;;;;;5063745;28;20512;-87
2023/04/21 04:54:49;;;;;;;0.20;0.20;;;7.50;99.90;;;;;;5067387;28;20298;-87
2023/04/21 04:57:15;;;;;;;0.20;0.20;;;7.50;99.90;;;;;;5068325;28;20534;-86
2023/04/21 04:59:40;;;;;;;0.20;0.20;;;7.50;99.90;;;;;;5065220;28;20178;-87
2023/04/21 05:02:06;;;;;;;0.20;0.20;;;7.50;99.90;;;;;;5064546;28;20201;-88
2023/04/21 05:04:33;;;;;;;0.20;0.20;;;7.50;99.90;;;;;;5067641;28;20669;-85
2023/04/21 05:06:59;;;;;;;0.20;0.20;;;7.50;99.90;;;;;;5067613;28;20448;-86
2023/04/21 05:09:24;;;;;;;0.10;0.10;;;7.60;99.90;;;;;;5068628;28;20489;-87
2023/04/21 05:11:50;;;;;;;0.20;0.20;;;7.60;99.90;;;;;;5060892;28;20721;-85
2023/04/21 05:14:15;;;;;;;0.20;0.20;;;7.60;99.90;;;;;;5063434;28;20636;-88
2023/04/21 05:16:42;;;;;;;0.13;0.13;;;7.70;99.90;;;;;;5068927;28;20262;-89
2023/04/21 05:19:08;;;;;;;0.20;0.20;;;7.70;99.90;;;;;;5064957;28;20235;-88
2023/04/21 05:21:33;;;;;;;0.20;0.20;;;7.80;99.90;;;;;;5069693;28;20445;-88
2023/04/21 05:23:59;;;;;;;0.20;0.20;;;7.90;99.90;;;;;;5067142;28;20194;-88
2023/04/21 05:26:26;;;;;;;0.10;0.10;;;8.00;99.90;;;;;;5069277;28;20210;-87
2023/04/21 05:28:52;;;;;;;0.20;0.20;;;8.10;99.90;;;;;;5068784;28;20801;-89
2023/04/21 05:31:18;;;;;;;0.20;0.20;;;8.10;99.90;;;;;;5066441;28;20453;-85
2023/04/21 05:33:43;;;;;;;0.10;0.10;;;8.30;99.90;;;;;;5065399;28;20485;-86
2023/04/21 05:36:09;;;;;;;0.10;0.10;;;8.30;99.90;;;;;;5065172;28;20262;-86
2023/04/21 05:38:35;;;;;;;0.10;0.10;;;8.40;99.90;;;;;;5071556;28;20281;-87
2023/04/21 05:41:01;;;;;;;0.10;0.10;;;8.50;99.90;;;;;;5064038;28;20515;-85
2023/04/21 05:43:27;;;;;;;0.20;0.20;;;8.50;99.90;;;;;;5062270;28;20197;-86
2023/04/21 05:45:53;;;;;;;0.17;0.17;;;8.70;99.90;;;;;;5064240;28;20448;-85
2023/04/21 05:48:18;;;;;;;0.10;0.10;;;8.70;99.90;;;;;;5068007;28;20193;-85
2023/04/21 05:50:44;;;;;;;0.10;0.10;;;8.80;99.90;;;;;;5057770;28;20623;-86
2023/04/21 05:53:09;;;;;;;0.20;0.20;;;8.90;99.90;;;;;;5057688;28;20234;-89
2023/04/21 05:55:35;;;;;;;0.17;0.17;;;9.00;99.90;;;;;;5065647;28;20186;-87
2023/04/21 05:58:01;;;;;;;0.17;0.17;;;9.10;99.90;;;;;;5066188;28;20186;-86
2023/04/21 06:00:27;;;;;;;0.10;0.10;;;9.20;99.90;;;;;;5058010;28;21041;-85
2023/04/21 06:02:52;;;;;;;0.10;0.10;;;9.30;99.90;;;;;;5060581;28;20240;-88
2023/04/21 06:05:18;;;;;;;0.10;0.10;;;9.40;99.90;;;;;;5065898;28;20221;-88
2023/04/21 06:07:43;;;;;;;0.17;0.17;;;9.40;99.90;;;;;;5061820;28;20174;-88
2023/04/21 06:10:10;;;;;;;0.10;0.10;;;9.50;99.90;;;;;;5060504;28;20186;-86
2023/04/21 06:12:36;;;;;;;0.10;0.10;;;9.60;99.90;;;;;;5063602;28;20222;-87
2023/04/21 06:15:01;;;;;;;0.10;0.10;;;9.60;99.90;;;;;;5065527;28;20436;-86
2023/04/21 06:17:27;;;;;;;0.10;0.10;;;9.70;99.90;;;;;;5050136;28;20202;-87
2023/04/21 06:19:52;;;;;;;0.10;0.10;;;9.90;99.90;;;;;;5059681;28;20607;-87
2023/04/21 06:22:22;;;;;;;0.07;0.07;;;9.90;99.90;;;;;;5062194;28;20186;-88
2023/04/21 06:24:47;;;;;;;0.10;0.10;;;10.10;99.90;;;;;;5062008;28;20182;-87
2023/04/21 06:27:13;;;;;;;0.10;0.10;;;10.20;99.90;;;;;;5059507;28;20440;-87
2023/04/21 06:29:39;;;;;;;0.10;0.10;;;10.30;99.90;;;;;;5066701;28;20193;-87
2023/04/21 06:32:05;;;;;;;0.10;0.10;;;10.40;99.90;;;;;;5066201;28;20210;-87
2023/04/21 06:34:30;;;;;;;0.10;0.10;;;10.50;99.90;;;;;;5060777;28;20538;-86
2023/04/21 06:36:56;;;;;;;0.10;0.10;;;10.50;99.90;;;;;;5062055;28;20182;-87
2023/04/21 06:39:21;;;;;;;0.10;0.10;;;10.50;99.90;;;;;;5062343;28;20240;-86
2023/04/21 06:41:47;;;;;;;0.10;0.10;;;10.60;99.90;;;;;;5059333;28;20200;-84
2023/04/21 06:44:13;;;;;;;0.10;0.10;;;10.70;99.90;;;;;;5059134;28;20186;-87
2023/04/21 06:46:39;;;;;;;0.10;0.10;;;10.90;99.90;;;;;;5059938;28;20180;-87
2023/04/21 06:49:08;;;;;;;0.10;0.10;;;10.90;99.90;;;;;;5058029;28;20813;-86
2023/04/21 06:51:34;;;;;;;0.10;0.10;;;11.00;99.90;;;;;;5061033;28;20476;-84
2023/04/21 06:54:00;;;;;;;0.10;0.10;;;11.00;99.90;;;;;;5055520;28;20498;-86
2023/04/21 06:56:29;;;;;;;0.10;0.10;;;11.10;99.90;;;;;;5058575;28;20200;-86
2023/04/21 06:58:55;;;;;;;0.00;0.00;;;11.20;99.90;;;;;;5068439;28;20444;-87
2023/04/21 07:01:20;;;;;;;0.10;0.10;;;11.30;99.90;;;;;;5065587;28;20443;-84
2023/04/21 07:03:46;;;;;;;0.00;0.00;;;11.40;99.90;;;;;;5067853;28;20438;-86
2023/04/21 07:06:11;;;;;;;0.03;0.03;;;11.40;99.90;;;;;;5065902;28;20186;-86
2023/04/21 07:08:37;;;;;;;0.10;0.10;;;11.50;99.90;;;;;;5061919;28;20193;-85
2023/04/21 07:11:03;;;;;;;0.10;0.10;;;11.50;99.90;;;;;;5065234;28;20194;-85
2023/04/21 07:13:30;;;;;;;0.00;0.00;;;11.70;99.90;;;;;;5064875;28;20494;-87
2023/04/21 07:15:55;;;;;;;0.10;0.10;;;11.80;99.90;;;;;;5064306;28;20200;-90
2023/04/21 07:18:21;;;;;;;0.10;0.10;;;11.90;99.90;;;;;;5071969;28;20416;-87
2023/04/21 07:20:46;;;;;;;0.00;0.00;;;12.00;99.90;;;;;;5062787;28;20261;-90
2023/04/21 07:23:12;;;;;;;0.00;0.00;;;12.10;99.90;;;;;;5064644;28;20177;-88
2023/04/21 07:25:37;;;;;;;0.10;0.10;;;12.20;99.90;;;;;;5058491;28;20182;-88
2023/04/21 07:28:04;;;;;;;0.10;0.10;;;12.30;99.90;;;;;;5066747;28;20190;-90
2023/04/21 07:30:30;;;;;;;0.07;0.07;;;12.40;99.90;;;;;;5061759;28;20190;-89
2023/04/21 07:32:56;;;;;;;0.10;0.10;;;12.60;99.90;;;;;;5068541;28;20567;-88
2023/04/21 07:35:22;;;;;;;0.00;0.00;;;12.60;99.90;;;;;;5066767;28;20916;-87
2023/04/21 07:37:47;;;;;;;0.10;0.10;;;12.60;99.90;;;;;;5054925;28;20440;-91
2023/04/21 07:40:13;;;;;;;0.00;0.00;;;12.80;99.90;;;;;;5055712;28;20193;-90
2023/04/21 07:42:39;;;;;;;0.07;0.07;;;12.80;99.90;;;;;;5065642;28;20208;-91
2023/04/21 07:45:05;;;;;;;0.10;0.10;;;12.80;99.90;;;;;;5070609;28;20436;-92
2023/04/21 07:47:30;;;;;;;0.10;0.10;;;13.00;99.90;;;;;;5067962;28;20534;-86
2023/04/21 07:49:56;;;;;;;0.10;0.10;;;13.00;99.90;;;;;;5069185;28;20744;-91
2023/04/21 07:52:22;;;;;;;0.10;0.10;;;13.20;99.90;;;;;;5076046;28;20284;-91
2023/04/21 07:54:47;;;;;;;0.10;0.10;;;13.30;99.90;;;;;;5065695;28;20583;-88
2023/04/21 07:57:13;;;;;;;0.00;0.00;;;13.30;99.90;;;;;;5070791;28;20196;-88
2023/04/21 07:59:39;;;;;;;0.03;0.03;;;13.50;99.90;;;;;;5069982;28;20229;-92
2023/04/21 08:02:04;;;;;;;0.00;0.00;;;13.70;99.90;;;;;;5058554;28;20199;-89
2023/04/21 08:04:30;;;;;;;0.10;0.10;;;13.70;99.90;;;;;;5071189;28;20186;-89
2023/04/21 08:06:56;;;;;;;0.00;0.00;;;13.90;99.90;;;;;;5061817;28;20199;-90
2023/04/21 08:09:21;;;;;;;0.00;0.00;;;13.90;99.90;;;;;;5061094;28;20205;-89
2023/04/21 08:11:47;;;;;;;0.00;0.00;;;14.20;99.90;;;;;;5073282;28;20268;-83
2023/04/21 08:14:12;;;;;;;0.00;0.00;;;14.20;99.90;;;;;;5071675;28;20666;-83
2023/04/21 08:16:40;;;;;;;0.00;0.00;;;14.30;99.90;;;;;;5067817;28;20178;-86
2023/04/21 08:19:07;;;;;;;0.00;0.00;;;14.20;99.90;;;;;;5068981;28;20277;-85
2023/04/21 08:21:33;;;;;;;0.00;0.00;;;14.30;99.90;;;;;;5070243;28;20495;-83
2023/04/21 08:23:59;;;;;;;0.00;0.00;;;14.50;99.90;;;;;;5062464;28;20449;-86
2023/04/21 08:26:25;;;;;;;0.00;0.00;;;14.50;99.90;;;;;;5058017;28;20251;-84
2023/04/21 08:28:51;;;;;;;0.00;0.00;;;14.70;99.90;;;;;;5066263;28;20968;-84
2023/04/21 08:31:18;;;;;;;0.00;0.00;;;14.80;99.90;;;;;;5073124;28;20648;-84
2023/04/21 08:33:43;;;;;;;0.00;0.00;;;15.00;99.90;;;;;;5072705;28;20482;-84
2023/04/21 08:36:10;;;;;;;0.00;0.00;;;15.00;99.90;;;;;;5072199;28;20467;-84
2023/04/21 08:38:39;;;;;;;0.00;0.00;;;15.00;99.90;;;;;;5069913;28;20225;-84
2023/04/21 08:41:07;;;;;;;0.00;0.00;;;15.30;99.90;;;;;;5070270;28;20947;-84
2023/04/21 08:43:32;;;;;;;0.00;0.00;;;15.30;99.90;;;;;;5066094;28;20451;-84
2023/04/21 08:45:59;;;;;;;0.00;0.00;;;15.60;99.90;;;;;;5069931;28;20446;-83
2023/04/21 08:48:26;;;;;;;0.00;0.00;;;15.70;99.90;;;;;;5070640;28;20190;-83
2023/04/21 08:50:52;;;;;;;0.00;0.00;;;15.90;99.90;;;;;;5067709;28;20489;-83
2023/04/21 08:53:18;;;;;;;0.00;0.00;;;15.90;99.90;;;;;;5067118;28;21260;-83
2023/04/21 08:55:44;;;;;;;0.00;0.00;;;15.70;99.90;;;;;;5069105;28;20871;-85
2023/04/21 08:58:10;;;;;;;0.00;0.00;;;15.70;99.90;;;;;;5065719;28;20785;-86
2023/04/21 09:00:36;;;;;;;0.00;0.00;;;15.90;99.90;;;;;;5064448;28;20497;-86
2023/04/21 09:03:04;;;;;;;0.00;0.00;;;16.10;99.90;;;;;;5068454;28;21164;-85
2023/04/21 09:05:31;;;;;;;0.00;0.00;;;16.30;99.90;;;;;;5065923;28;20557;-85
2023/04/21 09:08:11;;;;;;;0.00;0.00;;;16.10;99.90;;;;;;5066655;28;20443;-86
2023/04/21 09:10:49;;;;;;;0.00;0.00;;;16.10;99.90;;;;;;5066483;28;20493;-84
2023/04/21 09:13:15;;;;;;;0.00;0.00;;;16.40;99.90;;;;;;5064454;28;21353;-86
2023/04/21 09:15:43;;;;;;;0.00;0.00;;;16.70;99.90;;;;;;5068872;28;20523;-85
2023/04/21 09:18:17;;;;;;;0.00;0.00;;;16.40;99.90;;;;;;5069245;28;20501;-85
2023/04/21 09:20:44;;;;;;;0.00;0.00;;;16.40;99.90;;;;;;5068651;28;20447;-85
2023/04/21 09:23:10;;;;;;;0.00;0.00;;;16.50;99.90;;;;;;5070046;28;20451;-85
2023/04/21 09:25:39;;;;;;;0.00;0.00;;;16.80;99.90;;;;;;5066328;28;20440;-82
2023/04/21 09:28:11;;;;;;;0.00;0.00;;;17.00;99.90;;;;;;5069488;28;20436;-85
2023/04/21 09:30:41;;;;;;;0.00;0.00;;;17.30;99.90;;;;;;5066855;28;20539;-85
2023/04/21 09:33:14;;;;;;;0.00;0.00;;;17.10;99.90;;;;;;5070669;28;21275;-86
2023/04/21 09:35:40;;;;;;;0.00;0.00;;;17.10;99.90;;;;;;5067888;28;20440;-86
2023/04/21 09:38:11;;;;;;;0.00;0.00;;;17.20;99.90;;;;;;5072496;28;20505;-87
2023/04/21 09:40:37;;;;;;;0.00;0.00;;;17.00;99.90;;;;;;5065207;28;20871;-86
2023/04/21 09:43:02;;;;;;;0.00;0.00;;;17.00;99.90;;;;;;5064967;28;20487;-88
2023/04/21 09:45:29;;;;;;;0.00;0.00;;;17.00;99.90;;;;;;5069053;28;20186;-86
2023/04/21 09:47:57;;;;;;;0.00;0.00;;;17.10;99.90;;;;;;5068923;28;20181;-88
2023/04/21 09:50:24;;;;;;;0.00;0.00;;;17.10;99.90;;;;;;5066234;28;20464;-85
2023/04/21 09:52:54;;;;;;;0.00;0.00;;;17.20;99.90;;;;;;5068107;28;20507;-85
2023/04/21 09:55:28;;;;;;;0.00;0.00;;;17.40;99.90;;;;;;5069131;28;20455;-84
2023/04/21 09:57:59;;;;;;;0.00;0.00;;;17.40;99.90;;;;;;5066244;28;20534;-85
2023/04/21 10:00:28;;;;;;;0.00;0.00;;;17.90;99.90;;;;;;5063691;28;21051;-86
2023/04/21 10:02:56;;;;;;;0.00;0.00;;;18.10;99.90;;;;;;5068402;28;20494;-86
2023/04/21 10:05:21;;;;;;;0.00;0.00;;;18.30;99.90;;;;;;5067115;28;20982;-87
2023/04/21 10:07:47;;;;;;;0.00;0.00;;;18.10;99.90;;;;;;5061175;28;20502;-87
2023/04/21 10:10:27;;;;;;;0.00;0.00;;;18.40;99.90;;;;;;5067063;28;20268;-87
2023/04/21 10:12:54;;;;;;;0.00;0.00;;;18.40;99.90;;;;;;5064607;28;20479;-89
2023/04/21 10:15:32;;;;;;;0.00;0.00;;;18.70;99.90;;;;;;5066947;28;20440;-86
2023/04/21 10:18:17;;;;;;;0.00;0.00;;;18.90;99.90;;;;;;5067434;28;21040;-86
2023/04/21 10:20:57;;;;;;;0.00;0.00;;;18.80;99.90;;;;;;5064727;28;20451;-85
2023/04/21 10:23:32;;;;;;;0.00;0.00;;;18.70;99.90;;;;;;5062421;28;20506;-87
2023/04/21 10:26:17;;;;;;;0.00;0.00;;;18.70;99.90;;;;;;5069352;28;21028;-87
2023/04/21 10:28:46;;;;;;;0.00;0.00;;;19.10;99.90;;;;;;5068078;28;20432;-86
2023/04/21 10:31:29;;;;;;;0.00;0.00;;;19.10;99.90;;;;;;5065996;28;20983;-84
2023/04/21 10:34:07;;;;;;;0.00;0.00;;;19.50;99.90;;;;;;5068810;28;20447;-85
2023/04/21 10:37:06;;;;;;;0.00;0.00;;;19.60;99.70;;;;;;5061216;28;20440;-88
2023/04/21 10:39:40;;;;;;;0.00;0.00;;;19.70;99.30;;;;;;5060622;28;20443;-89
2023/04/21 10:42:15;;;;;;;0.00;0.00;;;19.80;99.50;;;;;;5061465;28;20525;-91
2023/04/21 10:44:41;;;;;;;0.00;0.00;;;20.00;99.90;;;;;;5056183;28;20454;-90
2023/04/21 10:47:07;;;;;;;0.00;0.00;;;20.20;98.30;;;;;;5067903;28;20445;-89
2023/04/21 10:49:38;;;;;;;0.00;0.00;;;20.20;99.20;;;;;;5067597;28;20929;-89
2023/04/21 10:52:05;;;;;;;0.00;0.00;;;20.20;98.50;;;;;;5056758;28;20218;-88
2023/04/21 10:55:05;;;;;;;0.00;0.00;;;20.30;98.60;;;;;;5066501;28;20480;-87
2023/04/21 10:57:32;;;;;;;0.00;0.00;;;20.70;98.00;;;;;;5066174;28;20531;-87
2023/04/21 10:59:58;;;;;;;0.00;0.00;;;20.80;97.70;;;;;;5066023;28;20455;-86
2023/04/21 11:02:24;;;;;;;0.00;0.00;;;21.00;97.00;;;;;;5059625;28;20444;-88
2023/04/21 11:04:51;;;;;;;0.00;0.00;;;20.90;97.10;;;;;;5059141;28;20269;-86
2023/04/21 11:07:26;;;;;;;0.00;0.00;;;21.30;96.80;;;;;;5069739;28;20448;-87
2023/04/21 11:09:59;;;;;;;0.00;0.00;;;21.40;96.90;;;;;;5058823;28;20442;-88
2023/04/21 11:12:30;;;;;;;0.00;0.00;;;21.90;96.70;;;;;;5061898;28;20483;-88
2023/04/21 11:14:56;;;;;;;0.00;0.00;;;21.80;96.60;;;;;;5062253;28;20527;-87
2023/04/21 11:17:23;;;;;;;0.00;0.00;;;21.50;95.40;;;;;;5062362;28;20527;-86
2023/04/21 11:19:55;;;;;;;0.00;0.00;;;21.90;96.50;;;;;;5058652;28;20211;-87
2023/04/21 11:22:22;;;;;;;0.00;0.00;;;22.40;96.00;;;;;;5064393;28;20471;-86
2023/04/21 11:24:50;;;;;;;0.00;0.00;;;22.20;96.20;;;;;;5064712;28;20444;-86
2023/04/21 11:27:16;;;;;;;0.00;0.00;;;22.40;99.90;;;;;;5059598;28;20828;-85
2023/04/21 11:29:47;;;;;;;0.00;0.00;;;22.70;96.00;;;;;;5070597;28;20435;-87
2023/04/21 11:32:13;;;;;;;0.00;0.00;;;22.70;95.50;;;;;;5068066;28;20549;-87
2023/04/21 11:34:39;;;;;;;0.00;0.00;;;23.10;93.90;;;;;;5060458;28;20531;-87
2023/04/21 11:37:12;;;;;;;0.00;0.00;;;23.00;94.90;;;;;;5056875;28;20543;-87
2023/04/21 11:39:40;;;;;;;0.00;0.00;;;22.80;94.40;;;;;;5065114;28;20318;-88
2023/04/21 11:42:06;;;;;;;0.00;0.00;;;22.50;94.90;;;;;;5067356;28;20489;-88
2023/04/21 11:44:35;;;;;;;0.00;0.00;;;23.20;94.60;;;;;;5066792;28;20436;-89
2023/04/21 11:47:15;;;;;;;0.00;0.00;;;23.00;93.80;;;;;;5064615;28;20190;-88
2023/04/21 11:49:53;;;;;;;0.00;0.00;;;23.10;93.70;;;;;;5068712;28;20479;-88
2023/04/21 11:52:26;;;;;;;0.00;0.00;;;22.70;93.70;;;;;;5060401;28;20511;-88
2023/04/21 11:55:00;;;;;;;0.00;0.00;;;22.70;93.30;;;;;;5067657;28;20562;-88
2023/04/21 11:57:27;;;;;;;0.00;0.00;;;23.10;94.00;;;;;;5058780;28;20450;-89
2023/04/21 11:59:52;;;;;;;0.00;0.00;;;23.30;93.40;;;;;;5064024;28;20447;-88
2023/04/21 12:02:26;;;;;;;0.00;0.00;;;23.60;93.30;;;;;;5065953;28;20436;-87
2023/04/21 12:05:09;;;;;;;0.00;0.00;;;23.30;93.70;;;;;;5067014;28;20268;-86
2023/04/21 12:07:44;;;;;;;0.00;0.00;;;23.20;93.70;;;;;;5060790;28;20447;-87
2023/04/21 12:10:18;;;;;;;0.00;0.00;;;23.20;93.80;;;;;;5054998;28;20452;-87
2023/04/21 12:12:44;;;;;;;0.00;0.00;;;23.70;93.60;;;;;;5047166;28;20553;-87
2023/04/21 12:15:11;;;;;;;0.00;0.00;;;23.80;90.70;;;;;;5067978;28;20453;-89
2023/04/21 12:17:38;;;;;;;0.00;0.00;;;24.50;92.40;;;;;;5053158;28;20437;-87
2023/04/21 12:20:07;;;;;;;0.00;0.00;;;24.30;92.50;;;;;;5063384;28;20451;-88
2023/04/21 12:22:33;;;;;;;0.00;0.00;;;24.40;92.90;;;;;;5061481;28;20539;-87
2023/04/21 12:24:58;;;;;;;0.00;0.00;;;24.50;91.70;;;;;;5065974;28;20527;-85
2023/04/21 12:27:25;;;;;;;0.00;0.00;;;24.80;92.60;;;;;;5058932;28;20214;-86
2023/04/21 12:29:50;;;;;;;0.00;0.00;;;24.50;92.30;;;;;;5065220;28;20193;-86
2023/04/21 12:32:16;;;;;;;0.00;0.00;;;24.40;91.80;;;;;;5063402;28;20479;-86
2023/04/21 12:34:42;;;;;;;0.00;0.00;;;24.20;91.90;;;;;;5059321;28;20711;-85
2023/04/21 12:37:07;;;;;;;0.00;0.00;;;24.20;92.30;;;;;;5059584;28;20189;-87
2023/04/21 12:39:33;;;;;;;0.00;0.00;;;24.40;92.50;;;;;;5059741;28;20815;-83
2023/04/21 12:41:59;;;;;;;0.00;0.00;;;23.90;91.60;;;;;;5060466;28;20186;-84
2023/04/21 12:44:25;;;;;;;0.00;0.00;;;23.40;92.00;;;;;;5064251;28;20193;-85
2023/04/21 12:46:51;;;;;;;0.00;0.00;;;22.60;92.10;;;;;;5060220;28;20472;-85
2023/04/21 12:49:17;;;;;;;0.00;0.00;;;22.70;92.70;;;;;;5065238;28;20182;-86
2023/04/21 12:51:43;;;;;;;0.00;0.00;;;22.90;92.80;;;;;;5069002;28;20890;-86